createdAt,value
2018-02-06T00:00:21.744Z,833.63
2018-02-06T00:02:50.894Z,836.30
2018-02-06T00:05:20.013Z,834.97
2018-02-06T00:07:49.120Z,840.63
2018-02-06T00:10:18.277Z,837.30
2018-02-06T00:12:47.408Z,838.73
2018-02-06T00:15:16.520Z,840.13
2018-02-06T00:17:45.694Z,839.77
2018-02-06T00:20:14.843Z,840.40
2018-02-06T00:22:49.881Z,836.63
2018-02-06T00:25:19.025Z,837.27
2018-02-06T00:27:48.166Z,845.57
2018-02-06T00:30:18.136Z,843.10
2018-02-06T00:32:47.277Z,841.23
2018-02-06T00:35:16.425Z,844.33
2018-02-06T00:37:45.595Z,839.37
2018-02-06T00:40:14.798Z,829.57
2018-02-06T00:42:43.945Z,840.37
2018-02-06T00:45:13.086Z,842.87
2018-02-06T00:47:42.255Z,842.07
2018-02-06T00:50:11.412Z,848.00
2018-02-06T00:52:40.554Z,836.67
2018-02-06T00:55:09.802Z,861.60
2018-02-06T00:57:38.958Z,843.37
2018-02-06T01:00:08.109Z,844.53
2018-02-06T01:02:37.281Z,843.23
2018-02-06T01:05:06.432Z,832.13
2018-02-06T01:07:35.577Z,843.87
2018-02-06T01:10:04.742Z,845.93
2018-02-06T01:12:33.878Z,833.77
2018-02-06T01:15:03.020Z,843.53
2018-02-06T01:17:32.202Z,869.97
2018-02-06T01:20:01.341Z,829.23
2018-02-06T01:22:30.478Z,838.07
2018-02-06T01:24:59.645Z,838.33
2018-02-06T01:27:28.798Z,846.67
2018-02-06T01:29:57.937Z,846.20
2018-02-06T01:32:27.329Z,837.93
2018-02-06T01:34:56.479Z,841.17
2018-02-06T01:37:25.617Z,853.00
2018-02-06T01:39:54.797Z,843.87
2018-02-06T01:42:24.034Z,855.33
2018-02-06T01:44:53.175Z,852.53
2018-02-06T01:47:22.401Z,843.47
2018-02-06T01:49:57.373Z,867.27
2018-02-06T01:52:26.562Z,845.47
2018-02-06T01:54:55.704Z,862.43
2018-02-06T01:57:24.857Z,851.43
2018-02-06T01:59:54.034Z,848.07
2018-02-06T02:02:23.186Z,843.80
2018-02-06T02:04:52.321Z,841.87
2018-02-06T02:07:21.483Z,873.73
2018-02-06T02:09:50.623Z,854.97
2018-02-06T02:12:19.775Z,860.47
2018-02-06T02:14:48.947Z,851.87
2018-02-06T02:17:18.125Z,878.50
2018-02-06T02:19:47.275Z,864.03
2018-02-06T02:22:16.423Z,863.27
2018-02-06T02:24:45.599Z,868.23
2018-02-06T02:27:14.746Z,865.17
2018-02-06T02:29:43.894Z,865.37
2018-02-06T02:32:13.093Z,871.47
2018-02-06T02:34:42.262Z,865.57
2018-02-06T02:37:11.443Z,855.10
2018-02-06T02:39:40.613Z,866.27
2018-02-06T04:39:00.497Z,896.60
2018-02-06T04:41:29.618Z,890.27
2018-02-06T04:43:58.797Z,883.10
2018-02-06T04:46:27.929Z,883.43
2018-02-06T04:48:57.084Z,879.07
2018-02-06T04:51:26.248Z,893.10
2018-02-06T04:53:55.412Z,884.03
2018-02-06T04:56:24.573Z,886.30
2018-02-06T04:58:53.713Z,885.83
2018-02-06T05:01:22.881Z,884.57
2018-02-06T05:03:52.101Z,901.20
2018-02-06T05:06:21.246Z,887.67
2018-02-06T05:08:50.449Z,878.77
2018-02-06T05:11:19.605Z,875.80
2018-02-06T05:13:48.756Z,881.47
2018-02-06T05:16:17.947Z,888.27
2018-02-06T05:18:47.098Z,873.73
2018-02-06T05:21:16.249Z,887.73
2018-02-06T05:23:45.437Z,938.13
2018-02-06T05:26:14.568Z,894.53
2018-02-06T05:28:43.738Z,885.20
2018-02-06T05:31:12.881Z,880.03
2018-02-06T05:33:42.040Z,903.50
2018-02-06T05:36:11.210Z,904.47
2018-02-06T05:38:40.364Z,882.67
2018-02-06T05:41:09.564Z,890.00
2018-02-06T05:43:38.739Z,864.17
2018-02-06T05:46:07.877Z,895.10
2018-02-06T05:48:37.064Z,886.70
2018-02-06T05:51:06.219Z,890.97
2018-02-06T05:53:35.369Z,886.27
2018-02-06T05:56:04.558Z,887.60
2018-02-06T05:58:33.719Z,885.83
2018-02-06T06:01:02.942Z,891.13
2018-02-06T06:03:32.090Z,888.10
2018-02-06T06:06:01.249Z,906.70
2018-02-06T06:08:30.569Z,889.47
2018-02-06T06:10:59.722Z,871.03
2018-02-06T06:13:28.878Z,892.07
2018-02-06T06:15:58.100Z,888.83
2018-02-06T06:18:27.232Z,890.13
2018-02-06T06:20:56.401Z,892.30
2018-02-06T06:23:25.584Z,901.60
2018-02-06T06:25:54.720Z,891.00
2018-02-06T06:28:23.875Z,884.50
2018-02-06T06:30:53.052Z,877.60
2018-02-06T06:33:22.201Z,889.70
2018-02-06T06:35:51.352Z,881.77
2018-02-06T06:38:20.536Z,913.73
2018-02-06T06:40:49.677Z,922.43
2018-02-06T06:43:18.821Z,895.03
2018-02-06T06:45:48.003Z,894.37
2018-02-06T06:48:17.143Z,876.87
2018-02-06T06:50:46.353Z,878.33
2018-02-06T06:53:15.502Z,890.90
2018-02-06T06:55:44.663Z,878.77
2018-02-06T06:58:13.856Z,887.00
2018-02-06T07:00:43.011Z,865.47
2018-02-06T07:03:12.153Z,879.07
2018-02-06T07:05:41.351Z,885.27
2018-02-06T07:08:10.496Z,884.70
2018-02-06T07:10:39.650Z,875.50
2018-02-06T07:13:08.832Z,875.30
2018-02-06T07:15:37.993Z,871.57
2018-02-06T07:18:07.141Z,881.13
2018-02-06T07:20:36.362Z,875.47
2018-02-06T07:23:05.520Z,878.57
2018-02-06T07:25:34.668Z,870.00
2018-02-06T07:28:03.879Z,884.10
2018-02-06T07:30:33.030Z,876.73
2018-02-06T07:33:02.202Z,870.33
2018-02-06T07:35:31.390Z,868.07
2018-02-06T07:38:00.545Z,869.20
2018-02-06T07:40:29.721Z,861.20
2018-02-06T07:42:58.921Z,863.97
2018-02-06T07:45:28.148Z,863.23
2018-02-06T07:47:57.306Z,859.23
2018-02-06T07:50:26.451Z,860.53
2018-02-06T07:52:55.638Z,870.93
2018-02-06T07:55:24.843Z,868.20
2018-02-06T07:57:54.002Z,857.17
2018-02-06T08:00:23.176Z,859.40
2018-02-06T08:02:52.330Z,851.13
2018-02-06T08:05:21.475Z,858.33
2018-02-06T08:07:50.682Z,852.57
2018-02-06T08:10:19.852Z,857.60
2018-02-06T08:12:49.006Z,850.27
2018-02-06T08:15:18.342Z,846.53
2018-02-06T08:17:47.482Z,856.13
2018-02-06T08:20:16.644Z,849.23
2018-02-06T08:22:45.847Z,850.03
2018-02-06T08:25:15.007Z,849.50
2018-02-06T08:27:44.153Z,847.20
2018-02-06T08:30:13.342Z,850.83
2018-02-06T08:32:42.491Z,854.23
2018-02-06T08:35:11.634Z,844.60
2018-02-06T08:37:40.805Z,856.77
2018-02-06T08:40:09.953Z,848.53
2018-02-06T08:42:39.119Z,846.90
2018-02-06T08:45:08.306Z,848.13
2018-02-06T08:47:37.458Z,848.83
2018-02-06T08:50:06.607Z,844.43
2018-02-06T08:52:35.850Z,853.50
2018-02-06T08:55:05.003Z,861.73
2018-02-06T08:57:34.158Z,853.37
2018-02-06T09:00:03.356Z,858.47
2018-02-06T09:02:32.562Z,856.47
2018-02-06T09:05:01.708Z,854.57
2018-02-06T09:07:30.889Z,851.93
2018-02-06T09:10:00.035Z,852.03
2018-02-06T09:12:29.225Z,856.27
2018-02-06T09:14:58.365Z,842.37
2018-02-06T09:17:28.238Z,854.43
2018-02-06T09:19:57.457Z,844.97
2018-02-06T09:22:26.588Z,856.37
2018-02-06T09:24:55.786Z,853.47
2018-02-06T09:27:24.935Z,846.30
2018-02-06T09:29:54.121Z,836.17
2018-02-06T09:32:23.269Z,831.33
2018-02-06T09:34:52.420Z,812.90
2018-02-06T09:37:21.560Z,809.60
2018-02-06T09:39:50.710Z,822.77
2018-02-06T09:42:19.890Z,833.13
2018-02-06T09:44:49.034Z,833.67
2018-02-06T09:47:18.205Z,825.70
2018-02-06T09:49:47.354Z,798.27
2018-02-06T09:52:16.505Z,800.30
2018-02-06T09:54:45.688Z,811.53
2018-02-06T09:57:14.838Z,874.43
2018-02-06T09:59:43.997Z,838.50
2018-02-06T10:02:13.203Z,829.40
2018-02-06T10:04:42.354Z,817.10
2018-02-06T10:07:11.543Z,805.20
2018-02-06T10:09:40.704Z,803.30
2018-02-06T10:12:09.841Z,769.33
2018-02-06T10:14:38.992Z,787.67
2018-02-06T10:17:08.182Z,790.80
2018-02-06T10:19:37.326Z,798.57
2018-02-06T10:22:06.525Z,783.10
2018-02-06T10:24:35.668Z,763.93
2018-02-06T10:27:04.860Z,757.53
2018-02-06T10:29:34.003Z,767.43
2018-02-06T10:32:03.155Z,781.83
2018-02-06T10:34:32.366Z,778.87
2018-02-06T10:37:01.513Z,776.93
2018-02-06T10:39:30.668Z,766.00
2018-02-06T10:41:59.853Z,807.27
2018-02-06T10:44:29.005Z,796.37
2018-02-06T10:46:58.191Z,788.20
2018-02-06T10:49:27.345Z,797.80
2018-02-06T10:51:56.522Z,793.40
2018-02-06T10:54:25.672Z,785.97
2018-02-06T10:56:54.822Z,800.67
2018-02-06T10:59:23.997Z,787.53
2018-02-06T11:01:53.658Z,790.67
2018-02-06T11:04:22.809Z,800.10
2018-02-06T11:06:51.984Z,803.93
2018-02-06T11:09:21.148Z,817.57
2018-02-06T11:11:50.297Z,822.60
2018-02-06T11:14:19.465Z,827.63
2018-02-06T11:16:48.612Z,837.87
2018-02-06T11:19:17.764Z,840.47
2018-02-06T11:21:46.942Z,843.80
2018-02-06T11:24:16.077Z,835.17
2018-02-06T11:26:45.261Z,830.97
2018-02-06T11:29:14.409Z,826.10
2018-02-06T11:31:43.558Z,833.23
2018-02-06T11:34:12.728Z,806.67
2018-02-06T11:36:41.876Z,815.73
2018-02-06T11:39:11.105Z,809.77
2018-02-06T11:41:40.249Z,807.77
2018-02-06T11:44:09.396Z,800.97
2018-02-06T11:46:38.859Z,842.20
2018-02-06T11:49:07.999Z,840.00
2018-02-06T11:51:37.160Z,842.17
2018-02-06T11:54:06.372Z,812.70
2018-02-06T11:56:35.518Z,816.90
2018-02-06T11:59:04.733Z,803.37
2018-02-06T12:01:33.933Z,804.67
2018-02-06T12:04:03.563Z,805.40
2018-02-06T12:06:32.708Z,799.80
2018-02-06T12:09:01.888Z,803.43
2018-02-06T12:11:32.995Z,806.53
2018-02-06T12:14:02.198Z,809.50
2018-02-06T12:16:31.341Z,817.97
2018-02-06T12:19:00.487Z,807.50
2018-02-06T12:21:29.661Z,794.47
2018-02-06T12:23:58.817Z,757.80
2018-02-06T12:26:27.991Z,746.20
2018-02-06T12:28:57.177Z,774.97
2018-02-06T12:31:26.360Z,770.07
2018-02-06T12:33:55.521Z,771.93
2018-02-06T12:36:24.691Z,792.47
2018-02-06T12:38:53.841Z,797.97
2018-02-06T12:41:23.035Z,802.40
2018-02-06T12:43:52.179Z,802.27
2018-02-06T12:46:21.358Z,799.80
2018-02-06T12:48:50.546Z,785.00
2018-02-06T12:51:19.691Z,744.77
2018-02-06T12:53:48.865Z,714.07
2018-02-06T12:56:18.006Z,717.70
2018-02-06T12:58:47.212Z,673.30
2018-02-06T13:01:16.341Z,616.23
2018-02-06T13:03:45.481Z,584.20
2018-02-06T13:06:14.667Z,591.20
2018-02-06T13:08:43.846Z,626.33
2018-02-06T13:11:13.029Z,616.73
2018-02-06T13:13:42.194Z,653.43
2018-02-06T13:16:11.445Z,665.60
2018-02-06T13:18:40.588Z,648.13
2018-02-06T13:21:09.728Z,681.07
2018-02-06T13:23:38.905Z,674.10
2018-02-06T13:26:08.083Z,719.53
2018-02-06T13:28:37.233Z,732.77
2018-02-06T13:31:06.387Z,750.53
2018-02-06T13:33:35.537Z,764.50
2018-02-06T13:36:04.682Z,765.83
2018-02-06T13:38:33.830Z,771.90
2018-02-06T13:41:03.353Z,767.23
2018-02-06T13:43:32.494Z,734.87
2018-02-06T13:46:01.649Z,712.13
2018-02-06T13:48:31.161Z,700.30
2018-02-06T13:51:00.329Z,712.30
2018-02-06T13:53:29.478Z,721.00
2018-02-06T13:55:58.818Z,707.50
2018-02-06T13:58:27.970Z,712.77
2018-02-06T14:00:57.169Z,744.53
2018-02-06T14:03:26.323Z,745.90
2018-02-06T14:05:55.454Z,747.63
2018-02-06T14:08:24.637Z,726.20
2018-02-06T14:10:53.782Z,744.47
2018-02-06T14:13:22.945Z,775.10
2018-02-06T14:15:52.081Z,761.83
2018-02-06T14:18:21.233Z,750.53
2018-02-06T14:20:50.401Z,730.33
2018-02-06T14:23:19.552Z,752.00
2018-02-06T14:25:48.691Z,761.73
2018-02-06T14:28:17.889Z,779.00
2018-02-06T14:30:47.084Z,785.87
2018-02-06T14:33:16.237Z,794.00
2018-02-06T14:35:45.382Z,785.50
2018-02-06T14:38:16.445Z,783.63
2018-02-06T14:40:45.575Z,788.60
2018-02-06T14:43:14.759Z,775.87
2018-02-06T14:48:18.681Z,770.13
2018-02-06T14:50:47.850Z,790.73
2018-02-06T14:53:17.025Z,800.40
2018-02-06T14:55:46.208Z,805.30
2018-02-06T14:58:15.350Z,827.63
2018-02-06T15:00:44.540Z,830.03
2018-02-06T15:03:13.712Z,832.17
2018-02-06T15:05:42.854Z,837.47
2018-02-06T15:08:12.048Z,845.23
2018-02-06T15:10:41.185Z,839.80
2018-02-06T15:13:10.421Z,829.80
2018-02-06T15:15:39.563Z,838.93
2018-02-06T15:18:08.748Z,846.27
2018-02-06T15:20:37.886Z,848.43
2018-02-06T15:23:07.067Z,861.43
2018-02-06T15:25:36.214Z,856.53
2018-02-06T15:28:05.405Z,871.13
2018-02-06T15:30:34.594Z,862.43
2018-02-06T15:33:03.750Z,866.03
2018-02-06T15:35:32.929Z,865.77
2018-02-06T15:38:02.111Z,879.60
2018-02-06T15:40:31.293Z,878.47
2018-02-06T15:43:00.469Z,879.10
2018-02-06T15:45:29.614Z,886.03
2018-02-06T15:47:58.766Z,878.63
2018-02-06T15:50:27.936Z,886.10
2018-02-06T15:52:57.089Z,875.17
2018-02-06T15:55:26.270Z,878.73
2018-02-06T15:57:55.417Z,871.27
2018-02-06T16:00:41.269Z,878.97
2018-02-06T16:03:10.430Z,868.03
2018-02-06T16:05:39.578Z,871.33
2018-02-06T16:08:08.745Z,872.00
2018-02-06T16:10:37.878Z,880.53
2018-02-06T16:13:07.053Z,875.83
2018-02-06T16:15:36.193Z,873.73
2018-02-06T16:18:05.857Z,869.33
2018-02-06T16:20:35.036Z,863.53
2018-02-06T16:23:04.168Z,871.37
2018-02-06T16:25:33.305Z,861.83
2018-02-06T16:28:02.484Z,861.03
2018-02-06T16:30:31.624Z,858.83
2018-02-06T16:33:00.840Z,864.33
2018-02-06T16:35:30.099Z,866.03
2018-02-06T16:37:59.233Z,854.77
2018-02-06T16:40:28.442Z,861.83
2018-02-06T16:42:57.716Z,860.33
2018-02-06T16:45:26.862Z,856.40
2018-02-06T16:47:56.124Z,857.70
2018-02-06T16:50:25.293Z,859.60
2018-02-06T16:52:54.435Z,858.87
2018-02-06T16:55:23.576Z,861.97
2018-02-06T16:57:52.725Z,857.70
2018-02-06T17:00:21.881Z,856.97
2018-02-06T17:02:51.045Z,859.17
2018-02-06T17:05:20.197Z,861.90
2018-02-06T17:07:49.388Z,861.80
2018-02-06T17:10:18.527Z,862.70
2018-02-06T17:12:47.709Z,858.33
2018-02-06T17:15:16.853Z,859.80
2018-02-06T17:17:46.009Z,858.23
2018-02-06T17:20:15.215Z,864.60
2018-02-06T17:22:44.368Z,859.53
2018-02-06T17:25:13.563Z,860.10
2018-02-06T17:27:42.704Z,858.33
2018-02-06T17:30:11.852Z,854.00
2018-02-06T17:32:41.046Z,866.33
2018-02-06T17:35:10.190Z,863.67
2018-02-06T17:37:39.334Z,859.20
2018-02-06T17:40:08.530Z,858.73
2018-02-06T17:42:37.674Z,860.17
2018-02-06T17:45:06.821Z,869.80
2018-02-06T17:47:36.035Z,864.57
2018-02-06T17:50:05.175Z,870.13
2018-02-06T17:52:34.339Z,866.57
2018-02-06T17:55:03.537Z,870.77
2018-02-06T17:57:32.682Z,859.70
2018-02-06T18:00:01.838Z,860.27
2018-02-06T18:02:30.977Z,859.27
2018-02-06T18:05:00.351Z,863.50
2018-02-06T18:07:29.499Z,863.13
2018-02-06T18:09:58.641Z,854.17
2018-02-06T18:12:27.813Z,861.63
2018-02-06T18:14:56.958Z,861.10
2018-02-06T18:17:26.169Z,858.70
2018-02-06T18:19:55.382Z,852.73
2018-02-06T18:22:24.516Z,855.07
2018-02-06T18:24:53.713Z,847.23
2018-02-06T18:27:22.869Z,859.27
2018-02-06T18:29:52.053Z,845.63
2018-02-06T18:32:21.206Z,837.63
2018-02-06T18:34:50.348Z,843.73
2018-02-06T18:37:19.680Z,841.07
2018-02-06T18:39:48.840Z,842.00
2018-02-06T18:42:17.998Z,829.70
2018-02-06T18:44:47.224Z,835.87
2018-02-06T18:47:16.380Z,829.43
2018-02-06T18:49:45.521Z,824.43
2018-02-06T18:52:14.701Z,833.23
2018-02-06T18:54:43.848Z,829.73
2018-02-06T18:57:13.017Z,823.23
2018-02-06T18:59:42.198Z,816.63
2018-02-06T19:02:11.345Z,824.57
2018-02-06T19:04:40.490Z,810.57
2018-02-06T19:07:09.669Z,817.03
2018-02-06T19:09:38.822Z,813.43
2018-02-06T19:12:07.988Z,816.97
2018-02-06T19:14:37.145Z,809.53
2018-02-06T19:17:06.290Z,797.07
2018-02-06T19:19:35.498Z,798.60
2018-02-06T19:22:04.631Z,789.57
2018-02-06T19:24:33.804Z,788.53
2018-02-06T19:27:02.972Z,793.50
2018-02-06T19:29:32.118Z,780.47
2018-02-06T19:32:01.262Z,787.23
2018-02-06T19:34:30.474Z,787.70
2018-02-06T19:36:59.617Z,795.17
2018-02-06T19:39:28.972Z,782.90
2018-02-06T19:41:58.134Z,774.07
2018-02-06T19:44:27.295Z,767.93
2018-02-06T19:46:56.478Z,768.43
2018-02-06T19:49:25.669Z,774.77
2018-02-06T19:51:54.838Z,753.67
2018-02-06T19:54:24.000Z,742.53
2018-02-06T19:56:53.192Z,754.00
2018-02-06T19:59:22.341Z,741.03
2018-02-06T20:01:51.509Z,746.60
2018-02-06T20:04:20.985Z,744.77
2018-02-06T20:06:50.146Z,746.47
2018-02-06T20:09:19.284Z,752.93
2018-02-06T20:11:48.473Z,738.03
2018-02-06T20:14:17.634Z,740.57
2018-02-06T20:16:46.798Z,732.73
2018-02-06T20:19:15.981Z,738.27
2018-02-06T20:21:45.125Z,729.43
2018-02-06T20:24:14.275Z,730.63
2018-02-06T20:26:43.918Z,718.90
2018-02-06T20:29:13.058Z,719.03
2018-02-06T20:31:42.211Z,705.23
2018-02-06T20:34:11.449Z,716.33
2018-02-06T20:36:40.593Z,708.90
2018-02-06T20:39:09.748Z,698.60
2018-02-06T20:41:38.954Z,717.10
2018-02-06T20:44:08.102Z,718.37
2018-02-06T20:46:37.282Z,724.33
2018-02-06T20:49:06.440Z,721.13
2018-02-06T20:51:35.577Z,745.97
2018-02-06T20:54:04.757Z,765.00
2018-02-06T20:56:33.888Z,778.53
2018-02-06T20:59:03.049Z,766.93
2018-02-06T21:01:32.205Z,762.87
2018-02-06T21:04:01.362Z,738.27
2018-02-06T21:06:30.507Z,739.10
2018-02-06T21:08:59.697Z,704.77
2018-02-06T21:11:28.842Z,690.93
2018-02-06T21:13:57.992Z,657.80
2018-02-06T21:16:27.172Z,658.33
2018-02-06T21:18:56.314Z,631.63
2018-02-06T21:21:25.510Z,637.10
2018-02-06T21:23:54.685Z,601.60
2018-02-06T21:26:23.826Z,615.47
2018-02-06T21:28:53.353Z,606.17
2018-02-06T21:31:22.545Z,599.27
2018-02-06T21:33:51.702Z,598.47
2018-02-06T21:36:20.889Z,583.80
2018-02-06T21:38:50.033Z,598.20
2018-02-06T21:41:19.215Z,580.77
2018-02-06T21:43:48.357Z,556.07
2018-02-06T21:46:17.869Z,564.87
2018-02-06T21:48:47.016Z,553.33
2018-02-06T21:51:16.171Z,561.17
2018-02-06T21:53:45.348Z,554.80
2018-02-06T21:56:14.497Z,564.10
2018-02-06T21:58:43.643Z,537.63
2018-02-06T22:01:12.813Z,543.97
2018-02-06T22:03:42.288Z,553.17
2018-02-06T22:06:11.424Z,547.27
2018-02-06T22:08:40.593Z,536.17
2018-02-06T22:11:09.766Z,541.63
2018-02-06T22:13:38.941Z,528.90
2018-02-06T22:16:08.085Z,524.60
2018-02-06T22:18:37.247Z,520.10
2018-02-06T22:21:06.418Z,515.77
2018-02-06T22:23:35.545Z,522.00
2018-02-06T22:26:04.725Z,510.80
2018-02-06T22:28:33.881Z,514.67
2018-02-06T22:31:03.249Z,504.50
2018-02-06T22:33:32.375Z,505.73
2018-02-06T22:36:01.569Z,510.43
2018-02-06T22:38:30.770Z,499.37
2018-02-06T22:40:59.952Z,495.93
2018-02-06T22:43:29.097Z,508.97
2018-02-06T22:45:58.290Z,505.73
2018-02-06T22:48:27.437Z,509.20
2018-02-06T22:50:56.615Z,518.80
2018-02-06T22:53:25.792Z,494.23
2018-02-06T22:55:54.945Z,511.93
2018-02-06T22:58:24.077Z,515.50
2018-02-06T23:00:53.254Z,511.17
2018-02-06T23:03:22.405Z,497.00
2018-02-06T23:05:51.560Z,502.77
2018-02-06T23:08:21.051Z,494.40
2018-02-06T23:10:50.203Z,488.77
2018-02-06T23:13:19.477Z,503.37
2018-02-06T23:15:48.714Z,493.00
2018-02-06T23:18:18.760Z,488.63
2018-02-06T23:20:47.967Z,500.30
2018-02-06T23:23:17.270Z,491.93
2018-02-06T23:25:46.412Z,483.07
2018-02-06T23:28:15.595Z,491.50
2018-02-06T23:30:44.762Z,476.10
2018-02-06T23:33:13.911Z,470.53
2018-02-06T23:35:43.471Z,473.00
2018-02-06T23:38:12.626Z,472.97
2018-02-06T23:40:41.766Z,471.30
2018-02-06T23:43:10.967Z,467.83
2018-02-06T23:45:40.121Z,457.37
2018-02-06T23:48:09.255Z,472.07
2018-02-06T23:50:38.426Z,470.73
2018-02-06T23:53:07.576Z,483.17
2018-02-06T23:55:36.708Z,478.17
2018-02-06T23:58:05.882Z,476.00
